sensor_id;sensor_type;location;lat;lon;timestamp;pressure;altitude;pressure_sealevel;temperature;humidity
76128;BME280;64873;50.102;14.434;2023-07-24T00:00:14;98681.91;;;22.12;39.54
76128;BME280;64873;50.102;14.434;2023-07-24T00:02:40;98676.84;;;22.19;39.54
76128;BME280;64873;50.102;14.434;2023-07-24T00:05:05;98677.03;;;22.08;39.80
76128;BME280;64873;50.102;14.434;2023-07-24T00:07:31;98676.47;;;22.12;39.39
76128;BME280;64873;50.102;14.434;2023-07-24T00:09:56;98673.63;;;22.17;39.42
76128;BME280;64873;50.102;14.434;2023-07-24T00:12:22;98672.00;;;22.16;39.78
76128;BME280;64873;50.102;14.434;2023-07-24T00:14:48;98664.94;;;22.15;39.67
76128;BME280;64873;50.102;14.434;2023-07-24T00:17:13;98664.06;;;22.05;39.72
76128;BME280;64873;50.102;14.434;2023-07-24T00:19:39;98660.72;;;22.08;39.48
76128;BME280;64873;50.102;14.434;2023-07-24T00:22:04;98653.94;;;22.20;39.96
76128;BME280;64873;50.102;14.434;2023-07-24T00:24:31;98662.13;;;22.20;39.26
76128;BME280;64873;50.102;14.434;2023-07-24T00:26:57;98660.00;;;22.39;38.71
76128;BME280;64873;50.102;14.434;2023-07-24T00:29:23;98657.97;;;22.45;38.04
76128;BME280;64873;50.102;14.434;2023-07-24T00:31:48;98647.38;;;22.21;38.81
76128;BME280;64873;50.102;14.434;2023-07-24T00:34:14;98658.78;;;22.45;38.26
76128;BME280;64873;50.102;14.434;2023-07-24T00:36:39;98654.53;;;22.30;38.44
76128;BME280;64873;50.102;14.434;2023-07-24T00:39:05;98650.53;;;22.14;38.83
76128;BME280;64873;50.102;14.434;2023-07-24T00:41:30;98657.81;;;22.05;39.96
76128;BME280;64873;50.102;14.434;2023-07-24T00:43:55;98647.16;;;21.95;39.68
76128;BME280;64873;50.102;14.434;2023-07-24T00:46:21;98654.06;;;22.15;39.31
76128;BME280;64873;50.102;14.434;2023-07-24T00:48:47;98646.63;;;22.06;39.55
76128;BME280;64873;50.102;14.434;2023-07-24T00:51:12;98649.44;;;22.01;39.79
76128;BME280;64873;50.102;14.434;2023-07-24T00:53:38;98650.63;;;22.23;39.46
76128;BME280;64873;50.102;14.434;2023-07-24T00:56:04;98647.06;;;21.86;40.39
76128;BME280;64873;50.102;14.434;2023-07-24T00:58:30;98653.06;;;21.61;40.96
76128;BME280;64873;50.102;14.434;2023-07-24T01:00:56;98656.16;;;21.68;40.85
76128;BME280;64873;50.102;14.434;2023-07-24T01:03:23;98648.69;;;21.87;40.58
76128;BME280;64873;50.102;14.434;2023-07-24T01:05:56;98653.34;;;21.73;40.86
76128;BME280;64873;50.102;14.434;2023-07-24T01:08:21;98654.66;;;21.62;41.19
76128;BME280;64873;50.102;14.434;2023-07-24T01:10:46;98657.78;;;21.69;41.39
76128;BME280;64873;50.102;14.434;2023-07-24T01:13:19;98657.59;;;21.65;41.55
76128;BME280;64873;50.102;14.434;2023-07-24T01:15:56;98654.19;;;21.60;41.31
76128;BME280;64873;50.102;14.434;2023-07-24T01:18:24;98659.09;;;21.58;41.79
76128;BME280;64873;50.102;14.434;2023-07-24T01:20:51;98659.00;;;21.63;41.49
76128;BME280;64873;50.102;14.434;2023-07-24T01:26:02;98660.84;;;21.53;42.07
76128;BME280;64873;50.102;14.434;2023-07-24T01:28:28;98665.66;;;21.56;42.14
76128;BME280;64873;50.102;14.434;2023-07-24T01:30:54;98657.19;;;21.44;42.12
76128;BME280;64873;50.102;14.434;2023-07-24T01:33:19;98655.41;;;21.53;42.20
76128;BME280;64873;50.102;14.434;2023-07-24T01:35:48;98657.19;;;21.44;42.41
76128;BME280;64873;50.102;14.434;2023-07-24T01:38:16;98655.31;;;21.31;42.69
76128;BME280;64873;50.102;14.434;2023-07-24T01:40:42;98643.88;;;21.15;42.69
76128;BME280;64873;50.102;14.434;2023-07-24T01:43:08;98639.38;;;21.38;42.52
76128;BME280;64873;50.102;14.434;2023-07-24T01:45:33;98636.03;;;21.14;43.09
76128;BME280;64873;50.102;14.434;2023-07-24T01:47:59;98622.56;;;21.09;42.81
76128;BME280;64873;50.102;14.434;2023-07-24T01:50:24;98629.00;;;21.13;42.83
76128;BME280;64873;50.102;14.434;2023-07-24T01:52:50;98622.34;;;20.91;43.38
76128;BME280;64873;50.102;14.434;2023-07-24T01:55:15;98623.75;;;20.89;43.66
76128;BME280;64873;50.102;14.434;2023-07-24T01:57:40;98632.22;;;21.01;43.45
76128;BME280;64873;50.102;14.434;2023-07-24T02:00:06;98629.59;;;21.10;43.20
76128;BME280;64873;50.102;14.434;2023-07-24T02:02:32;98622.97;;;20.88;43.74
76128;BME280;64873;50.102;14.434;2023-07-24T02:04:57;98601.81;;;20.85;43.75
76128;BME280;64873;50.102;14.434;2023-07-24T02:07:23;98597.59;;;20.93;43.70
76128;BME280;64873;50.102;14.434;2023-07-24T02:09:48;98598.28;;;20.98;43.61
76128;BME280;64873;50.102;14.434;2023-07-24T02:12:13;98601.22;;;20.88;44.14
76128;BME280;64873;50.102;14.434;2023-07-24T02:14:39;98602.44;;;20.96;43.88
76128;BME280;64873;50.102;14.434;2023-07-24T02:17:04;98596.47;;;20.80;44.61
76128;BME280;64873;50.102;14.434;2023-07-24T02:19:30;98597.41;;;20.75;44.52
76128;BME280;64873;50.102;14.434;2023-07-24T02:21:55;98602.44;;;20.82;44.51
76128;BME280;64873;50.102;14.434;2023-07-24T02:24:21;98600.44;;;20.88;44.31
76128;BME280;64873;50.102;14.434;2023-07-24T02:26:46;98618.41;;;20.97;44.21
76128;BME280;64873;50.102;14.434;2023-07-24T02:29:11;98625.69;;;21.02;43.95
76128;BME280;64873;50.102;14.434;2023-07-24T02:31:37;98638.53;;;20.96;44.10
76128;BME280;64873;50.102;14.434;2023-07-24T02:34:02;98647.72;;;21.00;44.29
76128;BME280;64873;50.102;14.434;2023-07-24T02:36:27;98650.13;;;21.16;43.73
76128;BME280;64873;50.102;14.434;2023-07-24T02:38:53;98646.13;;;21.13;43.71
76128;BME280;64873;50.102;14.434;2023-07-24T02:41:18;98651.03;;;20.97;44.35
76128;BME280;64873;50.102;14.434;2023-07-24T02:43:44;98656.13;;;20.85;44.77
76128;BME280;64873;50.102;14.434;2023-07-24T02:46:09;98649.19;;;20.93;44.49
76128;BME280;64873;50.102;14.434;2023-07-24T02:48:34;98634.81;;;20.79;44.63
76128;BME280;64873;50.102;14.434;2023-07-24T02:51:00;98631.97;;;20.70;44.90
76128;BME280;64873;50.102;14.434;2023-07-24T02:53:25;98640.44;;;20.82;44.94
76128;BME280;64873;50.102;14.434;2023-07-24T02:55:51;98653.09;;;20.73;45.28
76128;BME280;64873;50.102;14.434;2023-07-24T02:58:16;98650.69;;;20.85;44.82
76128;BME280;64873;50.102;14.434;2023-07-24T03:00:41;98657.03;;;20.81;45.14
76128;BME280;64873;50.102;14.434;2023-07-24T03:03:07;98667.63;;;20.82;45.15
76128;BME280;64873;50.102;14.434;2023-07-24T03:05:35;98654.34;;;20.94;44.67
76128;BME280;64873;50.102;14.434;2023-07-24T03:08:00;98664.91;;;21.10;44.44
76128;BME280;64873;50.102;14.434;2023-07-24T03:10:26;98661.50;;;21.04;44.83
76128;BME280;64873;50.102;14.434;2023-07-24T03:12:51;98665.31;;;21.03;44.76
76128;BME280;64873;50.102;14.434;2023-07-24T03:15:17;98657.06;;;20.94;45.02
76128;BME280;64873;50.102;14.434;2023-07-24T03:17:42;98653.31;;;20.90;45.23
76128;BME280;64873;50.102;14.434;2023-07-24T03:20:14;98652.22;;;20.91;46.29
76128;BME280;64873;50.102;14.434;2023-07-24T03:22:41;98647.91;;;20.90;46.97
76128;BME280;64873;50.102;14.434;2023-07-24T03:25:07;98631.78;;;20.80;48.91
76128;BME280;64873;50.102;14.434;2023-07-24T03:27:32;98641.66;;;20.76;48.89
76128;BME280;64873;50.102;14.434;2023-07-24T03:29:58;98637.41;;;20.70;50.50
76128;BME280;64873;50.102;14.434;2023-07-24T03:32:23;98639.03;;;20.85;48.69
76128;BME280;64873;50.102;14.434;2023-07-24T03:34:49;98646.88;;;20.72;49.67
76128;BME280;64873;50.102;14.434;2023-07-24T03:37:14;98646.03;;;20.58;51.54
76128;BME280;64873;50.102;14.434;2023-07-24T03:39:39;98632.25;;;20.55;53.13
76128;BME280;64873;50.102;14.434;2023-07-24T03:42:05;98642.03;;;20.18;54.99
76128;BME280;64873;50.102;14.434;2023-07-24T03:44:30;98640.72;;;19.96;55.76
76128;BME280;64873;50.102;14.434;2023-07-24T03:46:56;98634.19;;;20.16;57.15
76128;BME280;64873;50.102;14.434;2023-07-24T03:49:21;98635.53;;;20.00;57.42
76128;BME280;64873;50.102;14.434;2023-07-24T03:51:47;98621.50;;;19.93;57.67
76128;BME280;64873;50.102;14.434;2023-07-24T03:54:13;98629.44;;;19.89;57.26
76128;BME280;64873;50.102;14.434;2023-07-24T03:56:38;98614.91;;;19.80;58.51
76128;BME280;64873;50.102;14.434;2023-07-24T03:59:05;98619.03;;;19.59;58.02
76128;BME280;64873;50.102;14.434;2023-07-24T04:01:31;98613.31;;;19.60;58.48
76128;BME280;64873;50.102;14.434;2023-07-24T04:03:56;98612.22;;;19.61;59.81
76128;BME280;64873;50.102;14.434;2023-07-24T04:06:23;98597.41;;;19.73;59.40
76128;BME280;64873;50.102;14.434;2023-07-24T04:08:48;98605.19;;;19.79;59.13
76128;BME280;64873;50.102;14.434;2023-07-24T04:11:14;98605.19;;;19.60;59.92
76128;BME280;64873;50.102;14.434;2023-07-24T04:13:39;98602.16;;;19.62;61.38
76128;BME280;64873;50.102;14.434;2023-07-24T04:16:04;98598.59;;;19.66;60.43
76128;BME280;64873;50.102;14.434;2023-07-24T04:18:30;98602.84;;;19.73;61.48
76128;BME280;64873;50.102;14.434;2023-07-24T04:20:56;98585.78;;;19.72;61.34
76128;BME280;64873;50.102;14.434;2023-07-24T04:23:21;98580.03;;;19.92;60.40
76128;BME280;64873;50.102;14.434;2023-07-24T04:25:49;98571.78;;;19.84;60.93
76128;BME280;64873;50.102;14.434;2023-07-24T04:28:15;98558.13;;;19.89;61.06
76128;BME280;64873;50.102;14.434;2023-07-24T04:30:40;98553.91;;;19.83;61.69
76128;BME280;64873;50.102;14.434;2023-07-24T04:33:06;98547.22;;;19.75;61.34
76128;BME280;64873;50.102;14.434;2023-07-24T04:35:31;98542.47;;;19.67;61.89
76128;BME280;64873;50.102;14.434;2023-07-24T04:37:57;98527.81;;;19.68;62.66
76128;BME280;64873;50.102;14.434;2023-07-24T04:40:23;98531.94;;;19.65;62.52
76128;BME280;64873;50.102;14.434;2023-07-24T04:42:49;98536.63;;;19.60;62.15
76128;BME280;64873;50.102;14.434;2023-07-24T04:45:14;98549.91;;;19.56;62.46
76128;BME280;64873;50.102;14.434;2023-07-24T04:47:39;98565.25;;;19.66;62.53
76128;BME280;64873;50.102;14.434;2023-07-24T04:50:05;98562.16;;;19.91;61.21
76128;BME280;64873;50.102;14.434;2023-07-24T04:52:31;98554.09;;;19.86;61.80
76128;BME280;64873;50.102;14.434;2023-07-24T04:54:56;98561.13;;;19.87;62.24
76128;BME280;64873;50.102;14.434;2023-07-24T04:57:21;98562.81;;;20.02;61.54
76128;BME280;64873;50.102;14.434;2023-07-24T04:59:47;98559.13;;;20.12;61.18
76128;BME280;64873;50.102;14.434;2023-07-24T05:02:12;98562.41;;;20.41;60.63
76128;BME280;64873;50.102;14.434;2023-07-24T05:04:38;98563.97;;;20.47;59.91
76128;BME280;64873;50.102;14.434;2023-07-24T05:07:03;98563.28;;;20.23;61.01
76128;BME280;64873;50.102;14.434;2023-07-24T05:09:29;98557.44;;;20.48;59.80
76128;BME280;64873;50.102;14.434;2023-07-24T05:11:54;98549.03;;;20.31;60.01
76128;BME280;64873;50.102;14.434;2023-07-24T05:14:19;98550.28;;;20.20;60.34
76128;BME280;64873;50.102;14.434;2023-07-24T05:16:45;98538.22;;;20.12;61.01
76128;BME280;64873;50.102;14.434;2023-07-24T05:19:10;98553.22;;;20.23;60.43
76128;BME280;64873;50.102;14.434;2023-07-24T05:21:35;98546.28;;;20.64;58.95
76128;BME280;64873;50.102;14.434;2023-07-24T05:24:01;98552.84;;;20.76;58.51
76128;BME280;64873;50.102;14.434;2023-07-24T05:26:26;98555.56;;;20.76;58.55
76128;BME280;64873;50.102;14.434;2023-07-24T05:28:52;98551.41;;;20.79;58.64
76128;BME280;64873;50.102;14.434;2023-07-24T05:31:18;98542.06;;;20.85;58.36
76128;BME280;64873;50.102;14.434;2023-07-24T05:33:43;98542.16;;;20.80;58.33
76128;BME280;64873;50.102;14.434;2023-07-24T05:36:09;98527.59;;;20.76;58.81
76128;BME280;64873;50.102;14.434;2023-07-24T05:38:34;98538.66;;;20.93;58.44
76128;BME280;64873;50.102;14.434;2023-07-24T05:41:03;98533.91;;;20.85;57.47
76128;BME280;64873;50.102;14.434;2023-07-24T05:43:29;98538.75;;;21.02;58.21
76128;BME280;64873;50.102;14.434;2023-07-24T05:45:56;98536.81;;;21.02;57.83
76128;BME280;64873;50.102;14.434;2023-07-24T05:48:22;98547.59;;;21.08;57.62
76128;BME280;64873;50.102;14.434;2023-07-24T05:50:49;98545.06;;;21.25;56.65
76128;BME280;64873;50.102;14.434;2023-07-24T05:53:15;98548.69;;;21.07;57.84
76128;BME280;64873;50.102;14.434;2023-07-24T05:55:41;98547.28;;;21.23;56.93
76128;BME280;64873;50.102;14.434;2023-07-24T05:58:07;98544.25;;;21.38;56.12
76128;BME280;64873;50.102;14.434;2023-07-24T06:00:33;98533.16;;;21.48;56.16
76128;BME280;64873;50.102;14.434;2023-07-24T06:02:58;98537.44;;;21.86;54.83
76128;BME280;64873;50.102;14.434;2023-07-24T06:05:23;98523.78;;;21.77;55.05
76128;BME280;64873;50.102;14.434;2023-07-24T06:07:49;98526.91;;;21.48;55.50
76128;BME280;64873;50.102;14.434;2023-07-24T06:10:14;98525.88;;;21.58;55.30
76128;BME280;64873;50.102;14.434;2023-07-24T06:12:40;98530.47;;;21.71;54.95
76128;BME280;64873;50.102;14.434;2023-07-24T06:15:06;98527.22;;;21.46;55.33
76128;BME280;64873;50.102;14.434;2023-07-24T06:17:32;98533.97;;;21.49;55.14
76128;BME280;64873;50.102;14.434;2023-07-24T06:19:57;98534.31;;;21.70;54.72
76128;BME280;64873;50.102;14.434;2023-07-24T06:22:23;98521.06;;;21.54;55.27
76128;BME280;64873;50.102;14.434;2023-07-24T06:24:48;98525.13;;;21.43;55.81
76128;BME280;64873;50.102;14.434;2023-07-24T06:27:14;98529.47;;;21.67;54.94
76128;BME280;64873;50.102;14.434;2023-07-24T06:29:39;98531.28;;;21.94;54.33
76128;BME280;64873;50.102;14.434;2023-07-24T06:32:05;98536.03;;;21.88;54.09
76128;BME280;64873;50.102;14.434;2023-07-24T06:34:31;98535.78;;;21.76;54.78
76128;BME280;64873;50.102;14.434;2023-07-24T06:36:56;98551.59;;;21.74;55.06
76128;BME280;64873;50.102;14.434;2023-07-24T06:39:21;98550.03;;;22.18;53.21
76128;BME280;64873;50.102;14.434;2023-07-24T06:41:47;98547.75;;;22.11;53.83
76128;BME280;64873;50.102;14.434;2023-07-24T06:44:12;98548.78;;;22.24;53.30
76128;BME280;64873;50.102;14.434;2023-07-24T06:46:38;98546.38;;;22.53;53.07
76128;BME280;64873;50.102;14.434;2023-07-24T06:49:03;98558.28;;;22.57;51.95
76128;BME280;64873;50.102;14.434;2023-07-24T06:51:29;98554.59;;;22.31;52.63
76128;BME280;64873;50.102;14.434;2023-07-24T06:53:54;98556.47;;;21.63;54.32
76128;BME280;64873;50.102;14.434;2023-07-24T06:56:19;98545.22;;;21.56;54.54
76128;BME280;64873;50.102;14.434;2023-07-24T06:58:45;98526.00;;;21.75;54.40
76128;BME280;64873;50.102;14.434;2023-07-24T07:01:10;98515.72;;;22.39;52.75
76128;BME280;64873;50.102;14.434;2023-07-24T07:03:36;98503.31;;;22.24;53.28
76128;BME280;64873;50.102;14.434;2023-07-24T07:06:01;98492.66;;;22.37;53.50
76128;BME280;64873;50.102;14.434;2023-07-24T07:08:28;98481.75;;;22.05;53.39
76128;BME280;64873;50.102;14.434;2023-07-24T07:10:56;98482.91;;;21.68;54.85
76128;BME280;64873;50.102;14.434;2023-07-24T07:13:21;98497.69;;;21.53;55.07
76128;BME280;64873;50.102;14.434;2023-07-24T07:15:47;98500.78;;;21.61;55.17
76128;BME280;64873;50.102;14.434;2023-07-24T07:18:12;98487.44;;;21.95;54.46
76128;BME280;64873;50.102;14.434;2023-07-24T07:20:37;98483.09;;;22.48;53.18
76128;BME280;64873;50.102;14.434;2023-07-24T07:25:44;98490.38;;;22.70;51.79
76128;BME280;64873;50.102;14.434;2023-07-24T07:28:13;98492.59;;;23.07;50.93
76128;BME280;64873;50.102;14.434;2023-07-24T07:30:39;98495.34;;;23.85;48.63
76128;BME280;64873;50.102;14.434;2023-07-24T07:33:04;98499.84;;;23.90;48.61
76128;BME280;64873;50.102;14.434;2023-07-24T07:35:32;98509.78;;;24.12;47.98
76128;BME280;64873;50.102;14.434;2023-07-24T07:37:57;98502.19;;;24.35;47.00
76128;BME280;64873;50.102;14.434;2023-07-24T07:40:23;98511.19;;;24.73;45.82
76128;BME280;64873;50.102;14.434;2023-07-24T07:42:49;98501.63;;;24.59;45.98
76128;BME280;64873;50.102;14.434;2023-07-24T07:45:14;98519.19;;;24.32;46.74
76128;BME280;64873;50.102;14.434;2023-07-24T07:47:39;98516.66;;;24.09;46.60
76128;BME280;64873;50.102;14.434;2023-07-24T07:50:05;98515.28;;;24.59;46.17
76128;BME280;64873;50.102;14.434;2023-07-24T07:52:31;98516.94;;;24.51;46.67
76128;BME280;64873;50.102;14.434;2023-07-24T07:54:56;98521.25;;;24.52;46.20
76128;BME280;64873;50.102;14.434;2023-07-24T07:57:21;98517.75;;;24.43;46.33
76128;BME280;64873;50.102;14.434;2023-07-24T07:59:47;98517.63;;;24.22;46.93
76128;BME280;64873;50.102;14.434;2023-07-24T08:02:12;98515.34;;;24.41;46.58
76128;BME280;64873;50.102;14.434;2023-07-24T08:04:38;98511.19;;;24.35;46.70
76128;BME280;64873;50.102;14.434;2023-07-24T08:07:03;98508.63;;;24.22;46.81
76128;BME280;64873;50.102;14.434;2023-07-24T08:09:29;98515.13;;;24.55;46.59
76128;BME280;64873;50.102;14.434;2023-07-24T08:11:54;98512.41;;;24.85;45.77
76128;BME280;64873;50.102;14.434;2023-07-24T08:14:20;98509.88;;;25.09;45.25
76128;BME280;64873;50.102;14.434;2023-07-24T08:16:48;98498.13;;;25.17;44.79
76128;BME280;64873;50.102;14.434;2023-07-24T08:19:13;98483.97;;;25.57;43.93
76128;BME280;64873;50.102;14.434;2023-07-24T08:21:39;98473.03;;;25.57;43.96
76128;BME280;64873;50.102;14.434;2023-07-24T08:24:05;98476.94;;;26.22;43.12
76128;BME280;64873;50.102;14.434;2023-07-24T08:26:31;98461.91;;;26.41;42.04
76128;BME280;64873;50.102;14.434;2023-07-24T08:28:56;98450.16;;;25.95;42.91
76128;BME280;64873;50.102;14.434;2023-07-24T08:31:22;98436.66;;;26.35;41.98
76128;BME280;64873;50.102;14.434;2023-07-24T08:33:47;98445.13;;;25.97;42.94
76128;BME280;64873;50.102;14.434;2023-07-24T08:36:12;98435.16;;;26.38;41.66
76128;BME280;64873;50.102;14.434;2023-07-24T08:38:38;98425.91;;;26.91;40.77
76128;BME280;64873;50.102;14.434;2023-07-24T08:41:11;98420.53;;;27.07;40.42
76128;BME280;64873;50.102;14.434;2023-07-24T08:43:39;98415.72;;;27.04;40.55
76128;BME280;64873;50.102;14.434;2023-07-24T08:46:06;98402.31;;;26.62;40.52
76128;BME280;64873;50.102;14.434;2023-07-24T08:48:34;98405.22;;;27.06;40.21
76128;BME280;64873;50.102;14.434;2023-07-24T08:51:14;98401.06;;;27.24;39.71
76128;BME280;64873;50.102;14.434;2023-07-24T08:53:42;98408.03;;;27.22;39.66
76128;BME280;64873;50.102;14.434;2023-07-24T08:56:10;98410.03;;;27.65;38.71
76128;BME280;64873;50.102;14.434;2023-07-24T08:58:36;98403.09;;;27.83;38.12
76128;BME280;64873;50.102;14.434;2023-07-24T09:01:03;98403.38;;;27.38;38.44
76128;BME280;64873;50.102;14.434;2023-07-24T09:03:30;98404.16;;;27.51;38.89
76128;BME280;64873;50.102;14.434;2023-07-24T09:05:56;98397.34;;;27.60;38.53
76128;BME280;64873;50.102;14.434;2023-07-24T09:08:36;98393.97;;;27.79;37.79
76128;BME280;64873;50.102;14.434;2023-07-24T09:11:03;98390.88;;;27.25;38.81
76128;BME280;64873;50.102;14.434;2023-07-24T09:13:29;98399.66;;;27.30;38.59
76128;BME280;64873;50.102;14.434;2023-07-24T09:15:55;98402.59;;;27.37;38.42
76128;BME280;64873;50.102;14.434;2023-07-24T09:18:20;98390.19;;;27.56;38.34
76128;BME280;64873;50.102;14.434;2023-07-24T09:20:46;98395.03;;;27.90;37.60
76128;BME280;64873;50.102;14.434;2023-07-24T09:23:13;98394.25;;;28.06;37.38
76128;BME280;64873;50.102;14.434;2023-07-24T09:25:40;98391.34;;;28.14;37.55
76128;BME280;64873;50.102;14.434;2023-07-24T09:28:14;98389.31;;;28.27;37.12
76128;BME280;64873;50.102;14.434;2023-07-24T09:30:41;98393.63;;;28.60;37.02
76128;BME280;64873;50.102;14.434;2023-07-24T09:33:07;98397.41;;;28.71;36.38
76128;BME280;64873;50.102;14.434;2023-07-24T09:35:33;98392.19;;;29.01;36.20
76128;BME280;64873;50.102;14.434;2023-07-24T09:38:06;98395.22;;;28.96;36.03
76128;BME280;64873;50.102;14.434;2023-07-24T09:45:49;98387.50;;;29.02;36.04
76128;BME280;64873;50.102;14.434;2023-07-24T09:48:16;98382.06;;;29.05;36.14
76128;BME280;64873;50.102;14.434;2023-07-24T09:50:43;98368.09;;;29.14;35.74
76128;BME280;64873;50.102;14.434;2023-07-24T09:53:15;98371.00;;;29.02;35.67
76128;BME280;64873;50.102;14.434;2023-07-24T09:55:54;98378.72;;;28.96;35.59
76128;BME280;64873;50.102;14.434;2023-07-24T09:58:22;98368.47;;;29.12;35.84
76128;BME280;64873;50.102;14.434;2023-07-24T10:00:49;98362.75;;;29.21;34.89
76128;BME280;64873;50.102;14.434;2023-07-24T10:03:15;98365.28;;;29.30;35.22
76128;BME280;64873;50.102;14.434;2023-07-24T10:05:43;98365.78;;;29.35;34.51
76128;BME280;64873;50.102;14.434;2023-07-24T10:08:10;98359.97;;;29.40;34.36
76128;BME280;64873;50.102;14.434;2023-07-24T10:10:37;98360.28;;;29.35;34.69
76128;BME280;64873;50.102;14.434;2023-07-24T10:13:04;98355.50;;;29.32;35.17
76128;BME280;64873;50.102;14.434;2023-07-24T10:15:30;98350.72;;;29.29;34.69
76128;BME280;64873;50.102;14.434;2023-07-24T10:18:26;98352.81;;;29.16;35.07
76128;BME280;64873;50.102;14.434;2023-07-24T10:21:00;98350.19;;;28.18;36.29
76128;BME280;64873;50.102;14.434;2023-07-24T10:23:26;98356.50;;;28.50;35.65
76128;BME280;64873;50.102;14.434;2023-07-24T10:25:52;98346.75;;;27.89;36.70
76128;BME280;64873;50.102;14.434;2023-07-24T10:28:18;98349.88;;;27.88;36.96
76128;BME280;64873;50.102;14.434;2023-07-24T10:30:44;98355.00;;;28.37;35.99
76128;BME280;64873;50.102;14.434;2023-07-24T10:33:11;98362.69;;;28.31;36.25
76128;BME280;64873;50.102;14.434;2023-07-24T10:35:51;98360.44;;;28.33;36.04
76128;BME280;64873;50.102;14.434;2023-07-24T10:38:16;98353.16;;;28.60;36.02
76128;BME280;64873;50.102;14.434;2023-07-24T10:40:44;98346.16;;;28.63;35.55
76128;BME280;64873;50.102;14.434;2023-07-24T10:43:18;98348.72;;;28.72;35.56
76128;BME280;64873;50.102;14.434;2023-07-24T10:48:15;98344.00;;;28.37;36.22
76128;BME280;64873;50.102;14.434;2023-07-24T10:50:43;98335.53;;;28.61;36.29
76128;BME280;64873;50.102;14.434;2023-07-24T10:53:20;98342.88;;;28.73;36.23
76128;BME280;64873;50.102;14.434;2023-07-24T10:55:46;98324.69;;;28.68;35.98
76128;BME280;64873;50.102;14.434;2023-07-24T10:58:13;98327.38;;;28.84;35.79
76128;BME280;64873;50.102;14.434;2023-07-24T11:00:43;98322.03;;;28.21;35.81
76128;BME280;64873;50.102;14.434;2023-07-24T11:03:10;98308.63;;;28.35;35.48
76128;BME280;64873;50.102;14.434;2023-07-24T11:05:39;98309.81;;;28.03;35.86
76128;BME280;64873;50.102;14.434;2023-07-24T11:08:13;98298.53;;;28.24;36.04
76128;BME280;64873;50.102;14.434;2023-07-24T11:10:47;98301.03;;;28.64;34.91
76128;BME280;64873;50.102;14.434;2023-07-24T11:13:14;98295.41;;;28.41;34.83
76128;BME280;64873;50.102;14.434;2023-07-24T11:15:40;98309.25;;;28.45;34.50
76128;BME280;64873;50.102;14.434;2023-07-24T11:18:05;98300.59;;;28.62;34.24
76128;BME280;64873;50.102;14.434;2023-07-24T11:20:37;98299.19;;;28.52;34.45
76128;BME280;64873;50.102;14.434;2023-07-24T11:23:03;98284.22;;;28.50;34.62
76128;BME280;64873;50.102;14.434;2023-07-24T11:25:28;98293.19;;;28.66;35.01
76128;BME280;64873;50.102;14.434;2023-07-24T11:27:54;98292.16;;;28.55;34.80
76128;BME280;64873;50.102;14.434;2023-07-24T11:30:20;98289.22;;;28.28;35.61
76128;BME280;64873;50.102;14.434;2023-07-24T11:32:46;98289.75;;;28.18;36.14
76128;BME280;64873;50.102;14.434;2023-07-24T11:35:12;98289.91;;;28.25;35.88
76128;BME280;64873;50.102;14.434;2023-07-24T11:37:37;98288.19;;;28.33;35.90
76128;BME280;64873;50.102;14.434;2023-07-24T11:40:04;98291.66;;;27.82;36.64
76128;BME280;64873;50.102;14.434;2023-07-24T11:42:37;98278.47;;;27.72;37.64
76128;BME280;64873;50.102;14.434;2023-07-24T11:45:02;98271.28;;;27.83;37.38
76128;BME280;64873;50.102;14.434;2023-07-24T11:47:28;98275.00;;;27.75;37.66
76128;BME280;64873;50.102;14.434;2023-07-24T11:49:59;98270.75;;;27.62;37.46
76128;BME280;64873;50.102;14.434;2023-07-24T11:52:25;98276.44;;;28.20;36.63
76128;BME280;64873;50.102;14.434;2023-07-24T11:54:57;98244.09;;;27.78;37.46
76128;BME280;64873;50.102;14.434;2023-07-24T11:57:28;98244.34;;;27.57;38.00
76128;BME280;64873;50.102;14.434;2023-07-24T11:59:54;98227.41;;;28.03;37.20
76128;BME280;64873;50.102;14.434;2023-07-24T12:02:19;98238.09;;;28.08;37.32
76128;BME280;64873;50.102;14.434;2023-07-24T12:04:45;98232.84;;;28.19;37.19
76128;BME280;64873;50.102;14.434;2023-07-24T12:07:10;98226.44;;;27.48;38.17
76128;BME280;64873;50.102;14.434;2023-07-24T12:09:36;98236.66;;;27.63;37.96
76128;BME280;64873;50.102;14.434;2023-07-24T12:12:03;98232.44;;;28.16;37.47
76128;BME280;64873;50.102;14.434;2023-07-24T12:14:29;98213.34;;;27.73;37.87
76128;BME280;64873;50.102;14.434;2023-07-24T12:17:02;98216.47;;;27.87;37.83
76128;BME280;64873;50.102;14.434;2023-07-24T12:19:27;98218.19;;;28.30;37.59
76128;BME280;64873;50.102;14.434;2023-07-24T12:21:53;98213.25;;;28.36;37.51
76128;BME280;64873;50.102;14.434;2023-07-24T12:24:18;98202.47;;;28.47;37.30
76128;BME280;64873;50.102;14.434;2023-07-24T12:26:44;98196.16;;;28.27;37.31
76128;BME280;64873;50.102;14.434;2023-07-24T12:29:09;98185.41;;;28.57;37.06
76128;BME280;64873;50.102;14.434;2023-07-24T12:31:34;98174.81;;;28.98;36.68
76128;BME280;64873;50.102;14.434;2023-07-24T12:34:00;98164.84;;;28.70;36.51
76128;BME280;64873;50.102;14.434;2023-07-24T12:36:26;98158.75;;;28.80;36.25
76128;BME280;64873;50.102;14.434;2023-07-24T12:38:51;98161.09;;;28.59;36.64
76128;BME280;64873;50.102;14.434;2023-07-24T12:41:17;98152.06;;;28.58;36.66
76128;BME280;64873;50.102;14.434;2023-07-24T12:43:43;98157.13;;;28.56;37.04
76128;BME280;64873;50.102;14.434;2023-07-24T12:46:09;98139.53;;;28.41;37.29
76128;BME280;64873;50.102;14.434;2023-07-24T12:48:34;98139.22;;;28.08;37.51
76128;BME280;64873;50.102;14.434;2023-07-24T12:51:01;98144.28;;;27.55;38.32
76128;BME280;64873;50.102;14.434;2023-07-24T12:53:27;98137.53;;;27.84;37.41
76128;BME280;64873;50.102;14.434;2023-07-24T12:55:52;98140.22;;;28.00;37.30
76128;BME280;64873;50.102;14.434;2023-07-24T12:58:18;98139.41;;;28.34;36.94